Flight Track Log - Related Links

Times and Time Zones

All times are in EDT time to prevent confusion due to time zone crossing. See the VOZ1487 flight status page for this flight to view local times or setup timezone preferences in your user account.

Time Position Orientation Groundspeed Altitude Reporting Facility
EDT Latitude Longitude Course Direction KTS MPH feet Rate Location/Type
Mon 05:21:36 AM -31.9450 115.9640 140° Southeast 105 121 300  Level FlightAware ADS-B
Mon 05:22:01 AM -31.9260 115.9690 13° North 160 184 800 1,787 Climbing FlightAware ADS-B
Mon 05:22:23 AM -31.9120 115.9730 14° North 159 183 1,700 1,733 Climbing FlightAware ADS-B
Mon 05:22:46 AM -31.8910 115.9800 16° North 190 219 2,100 1,256 Climbing FlightAware ADS-B
Mon 05:23:06 AM -31.8740 115.9890 24° Northeast 224 258 2,600 1,440 Climbing FlightAware ADS-B
Mon 05:23:11 AM -31.8710 115.9930 49° Northeast 231 266 2,700 1,800 Climbing FlightAware ADS-B
Mon 05:23:16 AM -31.8680 115.9980 55° Northeast 236 272 2,900 2,400 Climbing FlightAware ADS-B
Mon 05:23:26 AM -31.8640 116.0100 69° East 251 289 3,300 2,400 Climbing FlightAware ADS-B
Mon 05:23:36 AM -31.8620 116.0250 81° East 269 310 3,700 1,600 Climbing FlightAware ADS-B
Mon 05:23:56 AM -31.8610 116.0530 88° East 296 341 4,100 1,350 Climbing FlightAware ADS-B
Mon 05:24:16 AM -31.8580 116.0930 85° East 330 380 4,600 1,714 Climbing FlightAware ADS-B
Mon 05:24:31 AM -31.8570 116.1140 87° East 336 387 5,100 2,229 Climbing FlightAware ADS-B
Mon 05:24:51 AM -31.8510 116.1530 80° East 350 403 5,900 2,200 Climbing FlightAware ADS-B
Mon 05:25:01 AM -31.8470 116.1740 77° East 353 406 6,200 857 Climbing FlightAware ADS-B
Mon 05:25:26 AM -31.8390 116.2140 77° East 342 394 6,400 1,600 Climbing FlightAware ADS-B
Mon 05:25:46 AM -31.8310 116.2530 76° East 343 395 7,400 2,850 Climbing FlightAware ADS-B
Mon 05:26:06 AM -31.8240 116.2920 78° East 352 405 8,300 2,533 Climbing FlightAware ADS-B
Mon 05:26:31 AM -31.8140 116.3420 77° East 367 422 9,300 2,000 Climbing FlightAware ADS-B
Mon 05:26:51 AM -31.8070 116.3800 78° East 385 443 9,800 1,964 Climbing FlightAware ADS-B
Mon 05:27:26 AM -31.7920 116.4530 76° East 402 463 11,100 2,031 Climbing FlightAware ADS-B
Mon 05:27:56 AM -31.7800 116.5160 77° East 415 478 12,000 2,031 Climbing FlightAware ADS-B
Mon 05:28:31 AM -31.7640 116.5930 76° East 424 488 13,300 2,182 Climbing FlightAware ADS-B
Mon 05:28:51 AM -31.7500 116.6310 67° East 423 487 14,000 2,400 Climbing FlightAware ADS-B
Mon 05:29:11 AM -31.7230 116.6710 52° Northeast 414 476 14,900 2,400 Climbing FlightAware ADS-B
Mon 05:29:31 AM -31.6980 116.6990 44° Northeast 412 474 15,600 1,964 Climbing FlightAware ADS-B
Mon 05:30:06 AM -31.6390 116.7380 29° Northeast 409 471 16,700 1,714 Climbing FlightAware ADS-B
Mon 05:30:41 AM -31.5830 116.7650 22° Northeast 412 474 17,600 1,760 Climbing FlightAware ADS-B
Mon 05:31:21 AM -31.5015 116.8043 22° Northeast 419 482 18,900 2,100 Climbing Aus ATC (RADAR)
Mon 05:31:21 AM -31.5050 116.8030 22° Northeast 418 481 19,000 1,371 Climbing FlightAware ADS-B
Mon 05:31:56 AM -31.4388 116.8351 22° Northeast 419 482 19,700 1,714 Climbing Aus ATC (RADAR)
Mon 05:31:56 AM -31.4400 116.8340 22° Northeast 424 488 20,000 1,200 Climbing FlightAware ADS-B
Mon 05:32:31 AM -31.3840 116.8620 23° Northeast 437 503 20,400 1,135 Climbing FlightAware ADS-B
Mon 05:33:10 AM -31.3110 116.8970 23° Northeast 435 501 21,400 1,333 Climbing FlightAware ADS-B
Mon 05:33:16 AM -31.2890 116.9074 23° Northeast 441 507 21,400 1,294 Level Aus ATC (RADAR)
Mon 05:34:01 AM -31.2033 116.9490 23° Northeast 445 512 22,500 652 Climbing Aus ATC (RADAR)
Mon 05:34:02 AM -31.2670 116.9190 23° Northeast 444 511 21,900 -375 Descending FlightAware ADS-B
Mon 05:34:49 AM -31.2030 116.9500 23° Northeast 445 512 22,200 1,214 Climbing FlightAware ADS-B
Mon 05:35:26 AM -31.0990 116.9990 22° Northeast 461 531 23,600 1,750 Climbing FlightAware ADS-B
Mon 05:36:01 AM -31.0320 117.0320 23° Northeast 464 534 24,300 1,690 Climbing FlightAware ADS-B
Mon 05:36:37 AM -30.8970 117.0970 22° Northeast 474 545 25,600 1,500 Climbing FlightAware ADS-B
Mon 05:37:09 AM -30.8410 117.1240 22° Northeast 471 542 26,000 741 Climbing FlightAware ADS-B
Mon 05:37:58 AM -30.7400 117.1720 22° Northeast 469 540 26,600 832 Climbing FlightAware ADS-B
Mon 05:38:50 AM -30.6430 117.2180 22° Northeast 473 544 27,400 1,186 Climbing FlightAware ADS-B
Mon 05:39:24 AM -30.5530 117.2610 22° Northeast 490 564 28,300 1,200 Climbing FlightAware ADS-B
Mon 05:39:25 AM -30.5461 117.2647 22° Northeast 489 563 28,100 649 Descending Aus ATC (RADAR)
Mon 05:40:01 AM -30.4726 117.2999 22° Northeast 491 565 28,700 1,333 Climbing Aus ATC (RADAR)
Mon 05:40:01 AM -30.4750 117.2990 22° Northeast 484 557 28,900 1,149 Climbing FlightAware ADS-B
Mon 05:40:48 AM -30.3840 117.3420 22° Northeast 486 559 29,600 1,079 Climbing FlightAware ADS-B
Mon 05:41:30 AM -30.2828 117.3891 22° Northeast 487 560 30,500 500 Climbing Aus ATC (RADAR)
Mon 05:41:36 AM -30.2960 117.3830 22° Northeast 486 559 30,000 646 Descending FlightAware ADS-B
Mon 05:42:35 AM -30.1730 117.4420 23° Northeast 484 557 31,200 1,451 Climbing FlightAware ADS-B
Mon 05:43:07 AM -30.0880 117.4820 22° Northeast 483 556 32,200 1,235 Climbing FlightAware ADS-B
Mon 05:43:43 AM -30.0190 117.5140 22° Northeast 483 556 32,600 519 Climbing FlightAware ADS-B
Mon 05:44:28 AM -29.9340 117.5540 22° Northeast 483 556 32,900 222 Climbing FlightAware ADS-B
Mon 05:45:04 AM -29.8710 117.5840 22° Northeast 483 556 32,900 618 Level FlightAware ADS-B
Mon 05:45:36 AM -29.7860 117.6240 22° Northeast 488 562 33,600 1,545 Climbing FlightAware ADS-B
Mon 05:46:10 AM -29.7023 117.6623 22° Northeast 480 552 34,600  Climbing Aus ATC (RADAR)
Mon 05:46:12 AM -29.7220 117.6530 22° Northeast 488 562 33,600 436 Descending FlightAware ADS-B
Mon 05:47:05 AM -29.6100 117.7060 22° Northeast 471 542 35,000 1,263 Climbing FlightAware ADS-B
Mon 05:47:09 AM -29.5792 117.7200 22° Northeast 480 552 34,800  Descending Aus ATC (RADAR)
Mon 05:47:48 AM -29.5060 117.7550 22° Northeast 472 543 35,000  Climbing FlightAware ADS-B
Mon 05:48:24 AM -29.4251 117.7924 22° Northeast 480 552 34,800  Descending Aus ATC (RADAR)
Mon 05:48:27 AM -29.4250 117.7920 22° Northeast 483 556 35,000  Climbing FlightAware ADS-B
Mon 05:48:59 AM -29.3521 117.8254 22° Northeast 483 556 34,800  Descending Aus ATC (RADAR)
Mon 05:49:25 AM -29.3210 117.8410 22° Northeast 484 557 35,000  Climbing FlightAware ADS-B
Mon 05:50:09 AM -29.2061 117.8915 22° Northeast 483 556 34,800  Descending Aus ATC (RADAR)
Mon 05:50:09 AM -29.2350 117.8810 22° Northeast 484 557 35,000 375 Climbing FlightAware ADS-B
Mon 05:50:41 AM -29.1450 117.9220 22° Northeast 800 921 35,000  Level FlightAware ADS-B
Mon 05:51:19 AM -29.0602 117.9582 22° Northeast 486 559 35,000  Level Aus ATC (RADAR)
Mon 05:51:44 AM -29.0081 117.9827 22° Northeast 486 559 35,000  Level Aus ATC (RADAR)
Mon 05:52:19 AM -28.9356 118.0163 22° Northeast 483 556 35,000  Level Aus ATC (RADAR)
Mon 05:53:04 AM -28.8419 118.0582 21° North 484 557 35,000  Level Aus ATC (RADAR)
Mon 05:53:34 AM -28.7797 118.0858 21° North 481 554 35,000  Level Aus ATC (RADAR)
Mon 05:54:09 AM -28.7078 118.1190 22° Northeast 480 552 35,000  Level Aus ATC (RADAR)
Mon 05:54:44 AM -28.6357 118.1525 22° Northeast 480 552 35,000  Level Aus ATC (RADAR)
Mon 05:55:19 AM -28.5641 118.1873 23° Northeast 482 555 35,000  Level Aus ATC (RADAR)
Mon 05:56:29 AM -28.4178 118.2543 22° Northeast 486 559 35,000  Level Aus ATC (RADAR)
Mon 05:56:54 AM -28.3648 118.2778 21° North 490 564 35,000  Level Aus ATC (RADAR)
Mon 05:57:24 AM -28.3011 118.3064 22° Northeast 492 566 35,000  Level Aus ATC (RADAR)
Mon 05:58:09 AM -28.2081 118.3513 23° Northeast 490 564  Descending Aus ATC (RADAR)
Mon 06:02:08 AM -27.6658 118.5888 21° North 37,000 1,845 Climbing Aus ATC (Calculated)
Mon 06:04:00 AM -27.8808 118.4974 201° Southwest  Level FlightAware Approximate
Mon 06:04:40 AM -27.3266 118.7361 21° North 37,000  Level Aus ATC (Calculated)
Mon 06:04:58 AM -27.2559 118.7666 21° North 37,000 -161 Level Aus ATC (Calculated)
Mon 06:06:00 AM -27.1361 118.8147 21° North  Level Estimated
Mon 06:07:00 AM -27.0215 118.8651 21° North  Level FlightAware Approximate
Mon 06:08:00 AM -26.9069 118.9155 21° North  Level FlightAware Approximate
Mon 06:09:00 AM -26.7923 118.9657 21° North  Level FlightAware Approximate
Mon 06:09:38 AM -26.6739 119.0154 21° North 37,000  Level Aus ATC (Calculated)
Mon 06:10:00 AM -26.6777 119.0158 21° North  Level FlightAware Approximate
Mon 06:11:00 AM -26.8317 118.9502 200° South  Level FlightAware Approximate
Mon 06:12:00 AM -26.7162 118.9979 20° North  Level FlightAware Approximate
Mon 06:12:42 AM -26.2916 119.1772 21° North 37,000  Level Aus ATC (Calculated)
Mon 06:13:00 AM -26.8317 118.9502 200° South  Level FlightAware Approximate
Mon 06:14:00 AM -26.4414 119.1143 201° Southwest  Level FlightAware Approximate
Mon 06:14:37 AM -26.0356 119.2850 21° North 37,000  Level Aus ATC (Calculated)
Mon 06:16:00 AM -25.8748 119.3474 21° North  Level Estimated
Mon 06:16:53 AM -25.7580 119.4013 196° South 37,000  Level Aus ATC (Calculated)
Mon 06:17:07 AM -25.7972 119.3889 21° North 560 644 35,000 -2,500 Descending Aus ATC (RADAR)
Mon 06:17:41 AM -25.7247 119.4185 20° North 482 555 35,000  Level Aus ATC (RADAR)
Mon 06:18:11 AM -25.6592 119.4478 22° Northeast 493 567 35,000  Level Aus ATC (RADAR)
Mon 06:18:46 AM -25.5848 119.4786 20° North 491 565 35,000  Level Aus ATC (RADAR)
Mon 06:19:36 AM -25.4809 119.5208 20° North 481 554 35,000  Level Aus ATC (RADAR)
Mon 06:20:02 AM -25.4283 119.5425 20° North 485 558 35,000  Level Aus ATC (RADAR)
Mon 06:20:36 AM -25.3535 119.5740 21° North 488 562 35,000  Level Aus ATC (RADAR)
Mon 06:21:31 AM -25.2390 119.6203 20° North 481 554 35,000  Level Aus ATC (RADAR)
Mon 06:21:56 AM -25.1864 119.6421 21° North 484 557 35,000  Level Aus ATC (RADAR)
Mon 06:22:31 AM -25.1133 119.6718 20° North 481 554 35,000  Level Aus ATC (RADAR)
Mon 06:23:16 AM -25.0187 119.7108 20° North 484 557 35,000  Level Aus ATC (RADAR)
Mon 06:23:51 AM -24.9453 119.7412 21° North 482 555 35,000  Level Aus ATC (RADAR)
Mon 06:24:21 AM -24.8841 119.7660 20° North 475 547 35,000  Level Aus ATC (RADAR)
Mon 06:24:56 AM -24.8119 119.7953 20° North 475 547 35,000  Level Aus ATC (RADAR)
Mon 06:25:31 AM -24.7391 119.8251 20° North 476 548 35,000  Level Aus ATC (RADAR)
Mon 06:26:26 AM -24.6232 119.8731 21° North 486 559 35,000  Level Aus ATC (RADAR)
Mon 06:26:46 AM -24.5846 119.8879 19° North 471 542 35,000  Level Aus ATC (RADAR)
Mon 06:27:16 AM -24.5206 119.9147 21° North 479 551 35,000  Level Aus ATC (RADAR)
Mon 06:27:50 AM -24.4522 119.9418 20° North 461 531 35,000  Level Aus ATC (RADAR)
Mon 06:28:30 AM -24.3694 119.9756 20° North 470 541 35,000  Level Aus ATC (RADAR)
Mon 06:29:05 AM -24.2972 120.0050 20° North 473 544 35,000  Level Aus ATC (RADAR)
Mon 06:29:40 AM -24.2246 120.0345 20° North 474 545 35,000  Level Aus ATC (RADAR)
Mon 06:30:15 AM -24.1524 120.0637 20° North 475 547 35,000  Level Aus ATC (RADAR)
Mon 06:30:45 AM -24.0920 120.0881 20° North 470 541 35,000  Level Aus ATC (RADAR)
Mon 06:31:45 AM -23.9685 120.1380 20° North 472 543 35,000  Level Aus ATC (RADAR)
Mon 06:32:10 AM -23.9176 120.1587 20° North 469 540 35,000  Level Aus ATC (RADAR)
Mon 06:32:45 AM -23.8451 120.1876 20° North 473 544 35,000  Level Aus ATC (RADAR)
Mon 06:33:30 AM -23.7516 120.2249 20° North 480 552 35,000  Level Aus ATC (RADAR)
Mon 06:34:00 AM -23.6974 120.2479 21° North 449 517 35,000  Level Aus ATC (RADAR)
Mon 06:34:40 AM -23.6097 120.2822 20° North 466 536 35,000  Level Aus ATC (RADAR)
Mon 06:35:10 AM -23.5515 120.3065 21° North 452 520 35,000  Level Aus ATC (RADAR)
Mon 06:35:45 AM -23.4775 120.3359 20° North 472 543 35,000  Level Aus ATC (RADAR)
Mon 06:36:40 AM -23.3612 120.3817 20° North 479 551 35,000  Level Aus ATC (RADAR)
Mon 06:37:00 AM -23.3211 120.3982 21° North 473 544 35,000  Level Aus ATC (RADAR)
Mon 06:37:30 AM -23.2573 120.4230 20° North 479 551 35,000  Level Aus ATC (RADAR)
Mon 06:37:59 AM -23.1930 120.4478 19° North 484 557 35,000  Level Aus ATC (RADAR)
Mon 06:38:44 AM -23.1005 120.4848 20° North 476 548 35,000  Level Aus ATC (RADAR)
Mon 06:39:19 AM -23.0292 120.5137 20° North 471 542 35,000  Level Aus ATC (RADAR)
Mon 06:39:49 AM -22.9670 120.5386 20° North 474 545 35,000  Level Aus ATC (RADAR)
Mon 06:40:24 AM -22.8937 120.5672 20° North 475 547 35,000  Level Aus ATC (RADAR)
Mon 06:40:59 AM -22.8216 120.5959 20° North 474 545 35,000  Level Aus ATC (RADAR)
Mon 06:41:54 AM -22.7097 120.6413 21° North 468 539 35,000  Level Aus ATC (RADAR)
Mon 06:42:19 AM -22.6583 120.6619 20° North 470 541 35,000  Level Aus ATC (RADAR)
Mon 06:42:54 AM -22.5854 120.6904 20° North 472 543 35,000  Level Aus ATC (RADAR)
Mon 06:43:44 AM -22.4814 120.7310 20° North 472 543 35,000  Level Aus ATC (RADAR)
Mon 06:44:14 AM -22.4194 120.7553 20° North 472 543 35,000  Level Aus ATC (RADAR)
Mon 06:44:49 AM -22.3462 120.7835 20° North 474 545 35,000  Level Aus ATC (RADAR)
Mon 06:45:19 AM -22.2836 120.8082 20° North 473 544 35,000  Level Aus ATC (RADAR)
Mon 06:45:54 AM -22.2105 120.8364 20° North 475 547 35,000 -316 Level Aus ATC (RADAR)
Mon 06:46:54 AM -22.0862 120.8847 20° North 472 543 34,500 -600 Descending Aus ATC (RADAR)
Mon 06:47:14 AM -22.0446 120.9003 19° North 471 542 34,200 -800 Descending Aus ATC (RADAR)
Mon 06:47:39 AM -21.9935 120.9205 20° North 469 540 33,900 -700 Descending Aus ATC (RADAR)
Mon 06:48:14 AM -21.9210 120.9490 20° North 471 542 33,500 -750 Descending Aus ATC (RADAR)
Mon 06:48:59 AM -21.8271 120.9859 20° North 474 545 32,900 -456 Descending Aus ATC (RADAR)
Mon 06:49:33 AM -21.7541 121.0153 21° North 476 548 32,900  Level Aus ATC (RADAR)
Mon 06:50:09 AM -21.6792 121.0440 20° North 481 554 32,900  Level Aus ATC (RADAR)
Mon 06:50:38 AM -21.6150 121.0687 20° North 484 557 32,900  Level Aus ATC (RADAR)
Mon 06:51:18 AM -21.5294 121.1018 20° North 485 558 32,900  Level Aus ATC (RADAR)
Mon 06:51:58 AM -21.4441 121.1353 20° North 486 559 32,900  Level Aus ATC (RADAR)
Mon 06:55:08 AM -21.0102 121.3043 20° North 33,000 32 Climbing Aus ATC (Calculated)
Mon 06:57:00 AM -20.7942 121.3881 20° North  Level FlightAware Approximate
Mon 06:58:00 AM -20.6785 121.4329 20° North  Level FlightAware Approximate
Mon 06:59:00 AM -20.5628 121.4775 20° North  Level FlightAware Approximate
Mon 07:00:00 AM -20.4470 121.5222 20° North  Level FlightAware Approximate
Mon 07:00:07 AM -20.4133 121.5352 360° North 33,000  Level Aus ATC (Calculated)
Mon 07:00:28 AM -20.4133 121.5352 20° North 33,000  Level Aus ATC (Calculated)
Mon 07:02:00 AM -20.2344 121.6040 20° North  Level FlightAware Approximate
Mon 07:02:47 AM -20.0550 121.6728 360° North 33,000  Level Aus ATC (Calculated)
Mon 07:04:00 AM -19.9041 121.6728 North  Level FlightAware Approximate
Mon 07:04:12 AM -19.8593 121.7473 20° North 9,700  Level Aus ATC (Calculated)
Mon 07:05:42 AM -19.6817 121.8148 20° North 9,700  Level Aus ATC (Calculated)
Mon 07:06:42 AM -19.6039 121.8443 200° South 9,700  Level Aus ATC (Calculated)
Mon 07:07:00 AM -19.8335 121.7571 200° South  Level FlightAware Approximate
Mon 07:08:00 AM -19.7558 121.7867 200° South  Level FlightAware Approximate
Mon 07:08:27 AM -19.3853 121.9270 200° South 9,700  Level Aus ATC (Calculated)
Mon 07:10:00 AM -19.5664 121.8585 200° South  Level FlightAware Approximate
Mon 07:10:42 AM -19.1484 122.0164 202° Southwest 9,700  Level Aus ATC (Calculated)
Mon 07:11:00 AM -19.4452 121.8867 20° North  Level Estimated
Mon 07:11:21 AM -19.0596 122.0499 20° North 9,700  Level Aus ATC (Calculated)
Mon 07:12:03 AM -18.9818 122.0791 20° North 9,700  Level Aus ATC (Calculated)
Mon 07:14:00 AM -18.7539 122.1647 20° North  Level FlightAware Approximate
Mon 07:14:21 AM -18.7097 122.1813 20° North 9,700  Level Aus ATC (Calculated)
Mon 07:16:00 AM -18.5168 122.2535 20° North  Level FlightAware Approximate
Mon 07:17:00 AM -18.3998 122.2971 20° North  Level FlightAware Approximate
Mon 07:17:26 AM -18.3761 122.2771 175° South 500  Level Aus ATC (Calculated)
Mon 07:19:00 AM -18.5696 122.2960 175° South  Level FlightAware Approximate
Mon 07:20:00 AM -18.4461 122.2839 355° North  Level FlightAware Approximate
Mon 07:20:26 AM -18.1935 122.2554 174° South  Level Aus ATC (Calculated)
Mon 07:22:00 AM -18.3868 122.2773 174° South  Level FlightAware Approximate
Mon 07:23:00 AM -18.5101 122.2914 174° South  Level FlightAware Approximate
Mon 07:23:30 AM -18.0106 122.2346 360° North  Level Aus ATC (Calculated)
Mon 07:23:30 AM -18.0106 122.2346 360° North  Level Aus ATC (Calculated)
Mon 07:23:30 AM -18.0106 122.2346 358° North  Level Aus ATC (Calculated)
Mon 07:25:00 AM -17.9447 122.2317 174° South  Level Estimated
Mon 07:26:00 AM -17.9447 122.2317 174° South  Level Estimated
Mon 07:27:00 AM -17.9447 122.2317 355° North  Level Estimated
Mon 07:28:00 AM -17.9463 122.2353 355° North  Level FlightAware Approximate

Login

Don't have an account? Register now (free) for customized features, flight alerts, and more!